createdAt,value
2022-08-18T00:01:25.640Z,101358.44
2022-08-18T00:03:59.385Z,101365.79
2022-08-18T00:06:31.058Z,101365.23
2022-08-18T00:09:00.739Z,101355.20
2022-08-18T00:11:41.588Z,101360.23
2022-08-18T00:14:22.524Z,101357.62
2022-08-18T00:16:53.942Z,101353.92
2022-08-18T00:19:43.680Z,101348.43
2022-08-18T00:22:15.402Z,101353.17
2022-08-18T00:24:50.984Z,101352.32
2022-08-18T00:27:23.180Z,101356.34
2022-08-18T00:29:52.045Z,101353.43
2022-08-18T00:32:26.802Z,101352.68
2022-08-18T00:34:54.872Z,101345.26
2022-08-18T00:37:24.001Z,101336.33
2022-08-18T00:39:55.493Z,101332.66
2022-08-18T00:42:31.330Z,101322.40
2022-08-18T00:45:05.181Z,101294.73
2022-08-18T00:47:42.304Z,101292.09
2022-08-18T00:50:28.014Z,101301.08
2022-08-18T00:53:06.087Z,101312.66
2022-08-18T00:55:35.012Z,101311.09
2022-08-18T00:58:17.005Z,101318.97
2022-08-18T01:00:46.911Z,101318.21
2022-08-18T01:03:24.552Z,101317.40
2022-08-18T01:06:04.919Z,101306.60
2022-08-18T01:08:32.968Z,101299.25
2022-08-18T01:11:03.919Z,101298.43
2022-08-18T01:13:34.091Z,101312.39
2022-08-18T01:16:22.414Z,101315.30
2022-08-18T01:19:08.655Z,101298.20
2022-08-18T01:21:53.180Z,101297.16
2022-08-18T01:24:44.665Z,101310.56
2022-08-18T01:27:19.487Z,101312.13
2022-08-18T01:29:50.633Z,101301.87
2022-08-18T01:32:24.412Z,101295.29
2022-08-18T01:34:53.487Z,101316.61
2022-08-18T01:37:24.323Z,101316.09
2022-08-18T01:41:23.807Z,101313.73
2022-08-18T01:42:40.869Z,101315.30
2022-08-18T01:45:09.323Z,101304.25
2022-08-18T01:47:47.846Z,101297.38
2022-08-18T01:50:26.396Z,101283.45
2022-08-18T01:52:54.774Z,101280.84
2022-08-18T01:55:22.882Z,101275.57
2022-08-18T01:57:50.910Z,101277.44
2022-08-18T02:00:20.158Z,101263.73
2022-08-18T02:02:58.696Z,101252.68
2022-08-18T02:05:37.748Z,101264.48
2022-08-18T02:08:07.034Z,101274.46
2022-08-18T02:10:36.432Z,101275.28
2022-08-18T02:13:04.164Z,101273.71
2022-08-18T02:15:33.243Z,101266.58
2022-08-18T02:18:00.935Z,101259.98
2022-08-18T02:20:28.874Z,101256.61
2022-08-18T02:22:56.607Z,101248.92
2022-08-18T02:25:24.289Z,101245.52
2022-08-18T02:27:52.451Z,101238.00
2022-08-18T02:30:20.590Z,101235.16
2022-08-18T02:32:48.821Z,101226.23
2022-08-18T02:35:16.737Z,101220.48
2022-08-18T02:37:49.018Z,101208.27
2022-08-18T02:40:18.249Z,101201.77
2022-08-18T02:42:47.703Z,101203.47
2022-08-18T02:45:15.669Z,101197.75
2022-08-18T02:47:44.509Z,101193.10
2022-08-18T02:50:13.919Z,101201.80
2022-08-18T02:52:42.400Z,101216.45
2022-08-18T02:55:10.934Z,101219.69
2022-08-18T02:57:44.597Z,101227.18
2022-08-18T03:00:16.224Z,101210.95
2022-08-18T03:02:52.538Z,101207.63
2022-08-18T03:05:20.403Z,101200.07
2022-08-18T03:07:48.166Z,101206.45
2022-08-18T03:10:32.283Z,101196.99
2022-08-18T03:13:01.428Z,101202.13
2022-08-18T03:15:29.188Z,101186.63
2022-08-18T03:17:57.288Z,101175.91
2022-08-18T03:20:30.787Z,101167.50
2022-08-18T03:22:59.589Z,101173.77
2022-08-18T03:25:33.709Z,101173.05
2022-08-18T03:28:01.494Z,101179.37
2022-08-18T03:30:29.139Z,101173.02
2022-08-18T03:32:56.854Z,101170.84
2022-08-18T03:35:24.537Z,101175.15
2022-08-18T03:37:52.678Z,101177.70
2022-08-18T03:40:20.793Z,101171.72
2022-08-18T03:42:48.461Z,101171.95
2022-08-18T03:45:17.699Z,101168.94
2022-08-18T03:47:46.906Z,101162.98
2022-08-18T03:50:14.722Z,101173.62
2022-08-18T03:52:42.491Z,101181.82
2022-08-18T03:55:10.776Z,101185.94
2022-08-18T03:57:39.369Z,101188.79
2022-08-18T04:00:08.242Z,101195.49
2022-08-18T04:02:35.898Z,101205.63
2022-08-18T04:05:05.374Z,101195.42
2022-08-18T04:07:33.448Z,101203.17
2022-08-18T04:10:01.225Z,101218.48
2022-08-18T04:12:28.940Z,101227.50
2022-08-18T04:14:56.581Z,101233.88
2022-08-18T04:17:27.003Z,101227.60
2022-08-18T04:19:56.396Z,101237.12
2022-08-18T04:22:25.976Z,101233.45
2022-08-18T04:24:54.907Z,101228.48
2022-08-18T04:27:23.927Z,101228.78
2022-08-18T04:29:51.968Z,101232.48
2022-08-18T04:32:20.569Z,101235.38
2022-08-18T04:34:48.307Z,101234.50
2022-08-18T04:37:17.056Z,101225.57
2022-08-18T04:39:45.639Z,101220.70
2022-08-18T04:42:13.550Z,101218.09
2022-08-18T04:44:41.345Z,101217.59
2022-08-18T04:47:10.504Z,101212.88
2022-08-18T04:49:38.286Z,101206.58
2022-08-18T04:52:39.867Z,101188.20
2022-08-18T04:55:09.785Z,101192.68
2022-08-18T04:57:37.663Z,101187.71
2022-08-18T05:00:07.257Z,101180.91
2022-08-18T05:02:34.993Z,101179.86
2022-08-18T05:05:04.894Z,101180.12
2022-08-18T05:07:33.032Z,101168.55
2022-08-18T05:10:00.766Z,101150.37
2022-08-18T05:12:29.973Z,101139.34
2022-08-18T05:14:58.041Z,101115.93
2022-08-18T05:17:30.423Z,101108.28
2022-08-18T05:20:02.682Z,101087.71
2022-08-18T05:22:31.961Z,101061.13
2022-08-18T05:25:01.257Z,101037.48
2022-08-18T05:27:34.146Z,101015.05
2022-08-18T05:30:03.437Z,101036.80
2022-08-18T05:32:47.091Z,101095.66
2022-08-18T05:35:22.130Z,101125.41
2022-08-18T05:38:04.870Z,101154.78
2022-08-18T05:40:33.065Z,101181.79
2022-08-18T05:43:01.447Z,101213.54
2022-08-18T05:45:29.491Z,101231.59
2022-08-18T05:48:01.025Z,101239.30
2022-08-18T05:50:30.560Z,101234.89
2022-08-18T05:53:05.571Z,101229.50
2022-08-18T05:56:18.473Z,101205.95
2022-08-18T05:58:51.916Z,101205.04
2022-08-18T06:01:25.114Z,101240.65
2022-08-18T06:04:02.733Z,101260.95
2022-08-18T06:06:33.105Z,101258.60
2022-08-18T06:09:29.101Z,101260.50
2022-08-18T06:12:23.762Z,101263.21
2022-08-18T06:14:51.905Z,101271.84
2022-08-18T06:17:32.259Z,101273.68
2022-08-18T06:20:20.119Z,101279.17
2022-08-18T06:22:59.715Z,101282.87
2022-08-18T06:25:56.623Z,101266.77
2022-08-18T06:28:24.595Z,101275.70
2022-08-18T06:31:12.093Z,101266.77
2022-08-18T06:33:40.477Z,101253.34
2022-08-18T06:36:21.750Z,101249.34
2022-08-18T06:39:05.610Z,101243.85
2022-08-18T06:41:59.716Z,101255.16
2022-08-18T06:44:41.678Z,101255.66
2022-08-18T06:47:19.179Z,101280.22
2022-08-18T06:50:04.137Z,101284.96
2022-08-18T06:52:34.639Z,101272.04
2022-08-18T06:55:08.172Z,101266.77
2022-08-18T06:57:39.648Z,101249.12
2022-08-18T07:00:32.568Z,101245.91
2022-08-18T07:03:09.023Z,101242.41
2022-08-18T07:05:38.400Z,101236.34
2022-08-18T07:08:15.571Z,101252.12
2022-08-18T07:10:49.539Z,101263.15
2022-08-18T07:13:30.338Z,101258.41
2022-08-18T07:16:56.554Z,101253.14
2022-08-18T07:19:21.814Z,101242.84
2022-08-18T07:22:10.444Z,101239.60
2022-08-18T07:24:47.133Z,101232.67
2022-08-18T07:27:21.498Z,101240.52
2022-08-18T07:30:09.369Z,101233.62
2022-08-18T07:32:52.392Z,101237.48
2022-08-18T07:35:29.094Z,101248.73
2022-08-18T07:38:18.638Z,101258.93
2022-08-18T07:41:15.707Z,101263.34
2022-08-18T07:44:04.530Z,101261.15
2022-08-18T07:46:36.577Z,101261.38
2022-08-18T07:49:05.702Z,101268.25
2022-08-18T07:51:58.198Z,101267.43
2022-08-18T07:54:57.804Z,101269.26
2022-08-18T07:57:41.863Z,101262.13
2022-08-18T08:00:26.781Z,101256.02
2022-08-18T08:03:44.293Z,101253.89
2022-08-18T08:06:28.707Z,101259.68
2022-08-18T08:09:18.074Z,101257.03
2022-08-18T08:11:59.731Z,101261.48
2022-08-18T08:14:29.980Z,101257.52
2022-08-18T08:17:06.032Z,101253.50
2022-08-18T08:19:58.993Z,101245.52
2022-08-18T08:22:31.767Z,101221.16
2022-08-18T08:25:22.630Z,101217.37
2022-08-18T08:28:04.170Z,101206.25
2022-08-18T08:30:36.962Z,101197.68
2022-08-18T08:33:20.531Z,101193.59
2022-08-18T08:36:04.020Z,101194.54
2022-08-18T08:38:42.693Z,101194.54
2022-08-18T08:41:23.127Z,101197.91
2022-08-18T08:44:01.607Z,101186.43
2022-08-18T08:46:35.022Z,101199.55
2022-08-18T08:49:28.935Z,101207.63
2022-08-18T08:52:03.473Z,101219.69
2022-08-18T08:54:58.092Z,101232.12
2022-08-18T08:57:35.083Z,101247.02
2022-08-18T09:00:06.299Z,101251.18
2022-08-18T09:03:07.743Z,101257.45
2022-08-18T09:05:56.781Z,101247.74
2022-08-18T09:08:43.975Z,101229.20
2022-08-18T09:11:40.965Z,101227.70
2022-08-18T09:14:14.786Z,101219.39
2022-08-18T09:17:18.558Z,101221.55
2022-08-18T09:19:59.808Z,101212.56
2022-08-18T09:22:53.210Z,101221.06
2022-08-18T09:25:42.945Z,101224.30
2022-08-18T09:28:29.116Z,101226.20
2022-08-18T09:31:02.952Z,101223.58
2022-08-18T09:33:41.935Z,101219.59
2022-08-18T09:36:37.359Z,101211.71
2022-08-18T09:39:48.050Z,101223.87
2022-08-18T09:42:49.881Z,101218.12
2022-08-18T09:45:34.314Z,101220.34
2022-08-18T09:48:20.658Z,101203.05
2022-08-18T09:51:24.487Z,101181.07
2022-08-18T09:53:55.062Z,101179.56
2022-08-18T09:56:54.449Z,101173.98
2022-08-18T09:59:35.432Z,101178.09
2022-08-18T10:02:33.100Z,101168.77
2022-08-18T10:05:16.809Z,101172.47
2022-08-18T10:07:54.348Z,101169.07
2022-08-18T10:11:00.502Z,101156.45
2022-08-18T10:13:48.270Z,101156.97
2022-08-18T10:16:57.546Z,101143.59
2022-08-18T10:19:49.815Z,101132.87
2022-08-18T10:22:44.662Z,101130.45
2022-08-18T10:25:22.687Z,101119.76
2022-08-18T10:28:06.529Z,101125.80
2022-08-18T10:30:56.754Z,101130.84
2022-08-18T10:34:00.985Z,101125.80
2022-08-18T10:36:45.909Z,101116.48
2022-08-18T10:39:22.158Z,101119.43
2022-08-18T10:42:19.263Z,101124.86
2022-08-18T10:44:51.594Z,101116.88
2022-08-18T10:47:33.687Z,101112.40
2022-08-18T10:50:06.337Z,101120.38
2022-08-18T10:55:50.121Z,101117.44
2022-08-18T10:58:24.071Z,101108.48
2022-08-18T11:01:14.326Z,101101.48
2022-08-18T11:04:13.850Z,101089.05
2022-08-18T11:06:48.871Z,101086.14
2022-08-18T11:09:30.284Z,101075.38
2022-08-18T11:12:03.195Z,101062.73
2022-08-18T11:15:23.133Z,101052.27
2022-08-18T11:18:18.204Z,101049.91
2022-08-18T11:20:47.404Z,101048.93
2022-08-18T11:23:18.326Z,101064.36
2022-08-18T11:25:46.317Z,101057.17
2022-08-18T11:28:23.077Z,101058.34
2022-08-18T11:30:58.881Z,101044.12
2022-08-18T11:33:28.861Z,101050.20
2022-08-18T11:36:02.165Z,101047.45
2022-08-18T11:38:33.162Z,101053.90
2022-08-18T11:41:20.487Z,101050.04
2022-08-18T11:43:50.441Z,101055.70
2022-08-18T11:46:28.106Z,101059.20
2022-08-18T11:49:01.616Z,101071.33
2022-08-18T11:51:33.203Z,101063.16
2022-08-18T11:54:23.235Z,101049.98
2022-08-18T11:56:52.365Z,101037.91
2022-08-18T11:59:52.562Z,101034.41
2022-08-18T12:02:22.834Z,101037.52
2022-08-18T12:04:57.380Z,101035.00
2022-08-18T12:07:57.570Z,101042.20
2022-08-18T12:10:29.750Z,101029.93
2022-08-18T12:13:01.358Z,101032.09
2022-08-18T12:15:44.300Z,101030.32
2022-08-18T12:18:28.450Z,101029.54
2022-08-18T12:21:02.754Z,101027.77
2022-08-18T12:23:38.326Z,101019.04
2022-08-18T12:26:07.233Z,101004.81
2022-08-18T12:28:54.944Z,101012.99
2022-08-18T12:31:42.395Z,101023.09
2022-08-18T12:34:24.907Z,101033.04
2022-08-18T12:36:57.916Z,101028.20
2022-08-18T12:39:26.168Z,101024.27
2022-08-18T12:41:53.979Z,101021.55
2022-08-18T12:44:21.849Z,101005.77
2022-08-18T12:46:50.289Z,100998.73
2022-08-18T12:49:25.227Z,100997.16
2022-08-18T12:51:56.564Z,100987.02
2022-08-18T12:54:26.593Z,100988.40
2022-08-18T12:56:58.724Z,100977.45
2022-08-18T12:59:27.241Z,100981.92
2022-08-18T13:02:00.786Z,100979.57
2022-08-18T13:04:28.747Z,100979.77
2022-08-18T13:07:01.967Z,100972.34
2022-08-18T13:09:53.995Z,100966.10
2022-08-18T13:12:24.257Z,100969.59
2022-08-18T13:14:52.359Z,100966.82
2022-08-18T13:17:32.061Z,100971.56
2022-08-18T13:20:14.248Z,100985.20
2022-08-18T13:22:42.666Z,100980.78
2022-08-18T13:25:33.183Z,100986.05
2022-08-18T13:28:03.368Z,100982.19
2022-08-18T13:30:32.882Z,100982.74
2022-08-18T13:33:05.225Z,100978.49
2022-08-18T13:35:52.301Z,100988.40
2022-08-18T13:38:25.677Z,100984.15
2022-08-18T13:40:59.036Z,100992.72
2022-08-18T13:43:37.889Z,100990.95
2022-08-18T13:46:09.313Z,100991.93
2022-08-18T13:48:38.888Z,100988.04
2022-08-18T13:51:12.081Z,100989.19
2022-08-18T13:53:52.202Z,100982.94
2022-08-18T13:56:31.665Z,100989.97
2022-08-18T13:58:59.646Z,100993.89
2022-08-18T14:01:51.353Z,100989.19
2022-08-18T14:04:20.448Z,100979.44
2022-08-18T14:06:56.266Z,101004.81
2022-08-18T14:09:35.760Z,100995.82
2022-08-18T14:12:15.513Z,100996.80
2022-08-18T14:14:52.377Z,100994.25
2022-08-18T14:17:22.284Z,100998.38
2022-08-18T14:20:15.390Z,101001.68
2022-08-18T14:23:10.628Z,100997.00
2022-08-18T14:25:57.328Z,101009.06
2022-08-18T14:28:28.516Z,101011.59
2022-08-18T14:30:58.114Z,101003.21
2022-08-18T14:33:34.525Z,101002.23
2022-08-18T14:36:18.289Z,101003.18
2022-08-18T14:38:46.272Z,101008.64
2022-08-18T14:41:19.973Z,101004.72
2022-08-18T14:44:11.629Z,101005.66
2022-08-18T14:46:41.855Z,101014.01
2022-08-18T14:49:29.438Z,101009.72
2022-08-18T14:52:02.031Z,101010.90
2022-08-18T14:54:32.978Z,101012.04
2022-08-18T14:57:06.530Z,101008.31
2022-08-18T14:59:37.766Z,101004.59
2022-08-18T15:02:07.665Z,101010.05
2022-08-18T15:04:56.087Z,101003.02
2022-08-18T15:07:26.079Z,101011.32
2022-08-18T15:10:14.980Z,101021.07
2022-08-18T15:12:42.395Z,101025.91
2022-08-18T15:15:17.998Z,101020.22
2022-08-18T15:17:52.337Z,101030.16
2022-08-18T15:20:28.680Z,101031.27
2022-08-18T15:23:22.887Z,101034.34
2022-08-18T15:25:56.522Z,101028.10
2022-08-18T15:28:27.426Z,101036.63
2022-08-18T15:33:43.265Z,101040.63
2022-08-18T15:36:28.804Z,101037.71
2022-08-18T15:38:57.873Z,101040.42
2022-08-18T15:41:44.069Z,101040.59
2022-08-18T15:44:12.308Z,101037.25
2022-08-18T15:46:40.403Z,101041.31
2022-08-18T15:49:14.925Z,101047.29
2022-08-18T15:51:45.593Z,101038.14
2022-08-18T15:54:13.522Z,101056.77
2022-08-18T15:56:43.347Z,101045.27
2022-08-18T15:59:12.718Z,101052.59
2022-08-18T16:01:43.469Z,101055.44
2022-08-18T16:04:11.792Z,101057.92
2022-08-18T16:06:41.982Z,101060.18
2022-08-18T16:09:13.423Z,101059.88
2022-08-18T16:11:42.115Z,101061.95
2022-08-18T16:14:10.285Z,101066.33
2022-08-18T16:16:38.337Z,101057.85
2022-08-18T16:19:07.783Z,101066.88
2022-08-18T16:21:41.160Z,101072.96
2022-08-18T16:24:09.615Z,101081.14
2022-08-18T16:26:37.273Z,101082.94
2022-08-18T16:29:05.018Z,101093.70
2022-08-18T16:31:32.701Z,101101.64
2022-08-18T16:34:00.382Z,101101.94
2022-08-18T16:36:28.102Z,101115.93
2022-08-18T16:38:58.654Z,101114.59
2022-08-18T16:41:27.652Z,101115.21
2022-08-18T16:43:55.805Z,101114.07
2022-08-18T16:46:28.204Z,101117.17
2022-08-18T16:48:58.096Z,101122.86
2022-08-18T16:51:29.388Z,101123.02
2022-08-18T16:53:57.079Z,101126.43
2022-08-18T16:56:27.722Z,101131.59
2022-08-18T16:59:14.981Z,101131.76
2022-08-18T17:02:01.959Z,101133.55
2022-08-18T17:04:34.787Z,101128.23
2022-08-18T17:07:07.291Z,101118.05
2022-08-18T17:09:35.998Z,101125.58
2022-08-18T17:12:03.947Z,101123.91
2022-08-18T17:14:33.166Z,101124.27
2022-08-18T17:17:01.648Z,101119.59
2022-08-18T17:19:34.285Z,101120.67
2022-08-18T17:22:04.360Z,101114.95
2022-08-18T17:24:32.764Z,101115.77
2022-08-18T17:27:26.430Z,101113.22
2022-08-18T17:30:04.810Z,101098.44
2022-08-18T17:32:55.331Z,101104.55
2022-08-18T17:35:29.053Z,101112.46
2022-08-18T17:38:16.242Z,101106.19
2022-08-18T17:40:50.513Z,101116.23
2022-08-18T17:43:21.204Z,101115.47
2022-08-18T17:45:56.076Z,101121.03
2022-08-18T17:48:29.752Z,101124.47
2022-08-18T17:51:29.686Z,101128.98
2022-08-18T17:54:02.076Z,101130.05
2022-08-18T17:56:37.466Z,101134.05
2022-08-18T17:59:46.181Z,101133.78
2022-08-18T18:02:29.919Z,101130.12
2022-08-18T18:05:00.387Z,101133.85
2022-08-18T18:07:39.530Z,101136.50
2022-08-18T18:10:10.430Z,101129.14
2022-08-18T18:12:39.825Z,101134.14
2022-08-18T18:15:11.385Z,101132.87
2022-08-18T18:17:42.721Z,101134.44
2022-08-18T18:20:19.563Z,101141.57
2022-08-18T18:22:47.305Z,101148.40
2022-08-18T18:25:34.315Z,101155.30
2022-08-18T18:28:02.784Z,101152.91
2022-08-18T18:30:30.957Z,101153.24
2022-08-18T18:33:04.006Z,101147.48
2022-08-18T18:35:54.857Z,101139.12
2022-08-18T18:38:25.785Z,101145.95
2022-08-18T18:41:13.431Z,101138.88
2022-08-18T18:43:47.921Z,101145.98
2022-08-18T18:46:20.351Z,101143.10
2022-08-18T18:49:15.979Z,101145.75
2022-08-18T18:52:07.287Z,101143.89
2022-08-18T18:54:50.459Z,101145.98
2022-08-18T18:58:00.946Z,101147.81
2022-08-18T19:00:53.884Z,101145.72
2022-08-18T19:03:27.513Z,101144.15
2022-08-18T19:06:00.784Z,101148.63
2022-08-18T19:08:40.783Z,101151.05
2022-08-18T19:11:45.990Z,101135.52
2022-08-18T19:14:22.080Z,101116.03
2022-08-18T19:16:52.784Z,101118.91
2022-08-18T19:19:36.805Z,101127.60
2022-08-18T19:22:18.773Z,101138.66
2022-08-18T19:24:55.367Z,101143.66
2022-08-18T19:27:39.308Z,101156.84
2022-08-18T19:30:12.974Z,101163.12
2022-08-18T19:32:45.394Z,101162.33
2022-08-18T19:35:23.185Z,101174.70
2022-08-18T19:38:08.935Z,101187.55
2022-08-18T19:40:39.519Z,101187.02
2022-08-18T19:43:13.652Z,101197.29
2022-08-18T19:46:03.153Z,101194.41
2022-08-18T19:48:44.045Z,101197.55
2022-08-18T19:51:39.618Z,101210.92
2022-08-18T19:54:10.328Z,101204.88
2022-08-18T19:56:53.749Z,101204.35
2022-08-18T19:59:51.673Z,101195.95
2022-08-18T20:02:39.894Z,101200.88
2022-08-18T20:05:24.994Z,101204.58
2022-08-18T20:08:13.003Z,101200.13
2022-08-18T20:11:12.084Z,101203.80
2022-08-18T20:13:43.557Z,101204.58
2022-08-18T20:16:28.535Z,101209.59
2022-08-18T20:19:39.422Z,101200.13
2022-08-18T20:22:16.173Z,101197.23
2022-08-18T20:25:00.706Z,101190.65
2022-08-18T20:27:39.753Z,101201.96
2022-08-18T20:30:34.210Z,101204.88
2022-08-18T20:33:11.107Z,101219.88
2022-08-18T20:35:53.066Z,101214.62
2022-08-18T20:38:37.562Z,101223.61
2022-08-18T20:41:44.718Z,101216.22
2022-08-18T20:44:30.691Z,101220.73
2022-08-18T20:47:16.179Z,101242.32
2022-08-18T20:50:08.910Z,101228.35
2022-08-18T20:52:57.329Z,101228.65
2022-08-18T20:55:53.390Z,101219.98
2022-08-18T20:58:26.406Z,101228.42
2022-08-18T21:00:58.161Z,101234.73
2022-08-18T21:03:39.593Z,101227.93
2022-08-18T21:06:08.578Z,101212.63
2022-08-18T21:08:38.694Z,101210.53
2022-08-18T21:11:21.054Z,101203.14
2022-08-18T21:14:04.055Z,101199.38
2022-08-18T21:16:46.627Z,101197.52
2022-08-18T21:19:21.699Z,101203.37
2022-08-18T21:21:52.845Z,101198.14
2022-08-18T21:24:38.776Z,101211.28
2022-08-18T21:27:16.195Z,101214.23
2022-08-18T21:29:49.102Z,101223.45
2022-08-18T21:32:28.914Z,101225.80
2022-08-18T21:34:56.581Z,101225.57
2022-08-18T21:37:24.270Z,101226.09
2022-08-18T21:39:57.810Z,101228.74
2022-08-18T21:42:31.175Z,101218.97
2022-08-18T21:45:01.103Z,101222.14
2022-08-18T21:47:35.802Z,101224.76
2022-08-18T21:50:17.268Z,101224.53
2022-08-18T21:53:01.790Z,101222.17
2022-08-18T21:55:48.391Z,101227.96
2022-08-18T21:58:18.669Z,101230.55
2022-08-18T22:01:11.760Z,101236.10
2022-08-18T22:04:01.950Z,101236.86
2022-08-18T22:06:35.457Z,101237.64
2022-08-18T22:09:30.922Z,101244.24
2022-08-18T22:12:41.963Z,101246.57
2022-08-18T22:15:20.665Z,101256.02
2022-08-18T22:17:54.002Z,101246.05
2022-08-18T22:20:39.339Z,101241.30
2022-08-18T22:23:27.783Z,101229.20
2022-08-18T22:26:13.461Z,101242.64
2022-08-18T22:29:11.348Z,101250.27
2022-08-18T22:31:42.851Z,101248.70
2022-08-18T22:34:14.666Z,101249.51
2022-08-18T22:36:46.667Z,101246.08
2022-08-18T22:39:23.700Z,101246.08
2022-08-18T22:41:51.441Z,101246.60
2022-08-18T22:44:19.149Z,101246.34
2022-08-18T22:46:46.870Z,101252.39
2022-08-18T22:49:14.565Z,101255.30
2022-08-18T22:51:42.433Z,101255.52
2022-08-18T22:54:11.971Z,101260.50
2022-08-18T22:56:40.234Z,101252.09
2022-08-18T22:59:22.705Z,101247.38
2022-08-18T23:01:52.198Z,101241.07
2022-08-18T23:04:22.236Z,101234.20
2022-08-18T23:06:53.228Z,101233.42
2022-08-18T23:09:32.532Z,101232.90
2022-08-18T23:12:11.135Z,101235.25
2022-08-18T23:14:39.233Z,101232.64
2022-08-18T23:17:08.852Z,101211.88
2022-08-18T23:19:36.509Z,101225.02
2022-08-18T23:22:06.258Z,101214.78
2022-08-18T23:24:33.933Z,101212.40
2022-08-18T23:27:01.720Z,101223.97
2022-08-18T23:29:29.436Z,101232.41
2022-08-18T23:31:57.082Z,101237.37
2022-08-18T23:34:25.778Z,101225.80
2022-08-18T23:36:57.927Z,101220.02
2022-08-18T23:39:26.818Z,101214.00
2022-08-18T23:41:55.371Z,101215.05
2022-08-18T23:44:27.341Z,101208.18
2022-08-18T23:46:56.575Z,101206.61
2022-08-18T23:49:24.565Z,101200.03
2022-08-18T23:51:55.468Z,101200.03
2022-08-18T23:54:28.213Z,101191.08
2022-08-18T23:56:56.170Z,101182.15
2022-08-18T23:59:25.700Z,101192.45
